Time;durP1;ratioP1;P1;durP2;ratioP2;P2;SDS_P1;SDS_P2;PMS_P1;PMS_P2;Temp;Humidity;BMP_temperature;BMP_pressure;BME280_temperature;BME280_humidity;BME280_pressure;Samples;Min_cycle;Max_cycle;Signal;HPM_P1;HPM_P2
2022/01/16 00:01:34;;;;;;;1.77;1.00;;;;;;;-1.57;66.11;98246.38;5013960;28;20057;-79
2022/01/16 00:04:09;;;;;;;1.58;0.85;;;;;;;-1.52;66.60;98260.06;5014520;28;20049;-78
2022/01/16 00:06:40;;;;;;;1.77;1.02;;;;;;;-1.52;66.60;98260.06;5014103;28;20065;-77
2022/01/16 00:09:05;;;;;;;2.65;1.10;;;;;;;-1.54;66.70;98270.22;5014342;28;20037;-77
2022/01/16 00:11:31;;;;;;;1.92;0.98;;;;;;;-1.45;67.34;98259.38;5013827;28;20041;-77
2022/01/16 00:13:57;;;;;;;1.75;1.00;;;;;;;-1.47;66.67;98253.38;5013924;28;20046;-76
2022/01/16 00:16:23;;;;;;;3.45;1.05;;;;;;;-1.51;67.06;98251.63;4997501;28;20025;-77
2022/01/16 00:18:49;;;;;;;1.42;0.90;;;;;;;-1.48;67.26;98225.38;5013646;28;20398;-77
2022/01/16 00:21:17;;;;;;;2.22;1.00;;;;;;;-1.54;66.81;98216.81;5014132;28;20088;-78
2022/01/16 00:23:43;;;;;;;3.35;1.42;;;;;;;-1.49;67.04;98218.59;5013546;28;20037;-77
2022/01/16 00:26:08;;;;;;;3.95;1.63;;;;;;;-1.58;67.48;98204.00;5013787;28;20042;-78
2022/01/16 00:28:34;;;;;;;3.00;1.25;;;;;;;-1.37;67.46;98219.69;5014057;28;20065;-77
2022/01/16 00:30:59;;;;;;;1.67;1.08;;;;;;;-1.47;66.98;98216.91;4997322;28;20402;-77
2022/01/16 00:33:25;;;;;;;1.50;1.05;;;;;;;-1.57;66.69;98210.78;5013295;28;20045;-77
2022/01/16 00:35:51;;;;;;;1.65;0.85;;;;;;;-1.62;67.26;98205.63;5013716;28;20168;-77
2022/01/16 00:38:16;;;;;;;1.67;1.10;;;;;;;-1.50;67.78;98216.88;4997172;28;20107;-77
2022/01/16 00:40:42;;;;;;;1.60;1.05;;;;;;;-1.58;67.40;98224.34;5013597;28;20049;-77
2022/01/16 00:43:08;;;;;;;2.15;1.10;;;;;;;-1.73;68.14;98227.44;5015044;28;20038;-76
2022/01/16 00:45:36;;;;;;;4.22;1.08;;;;;;;-1.83;68.44;98203.50;5013387;28;20045;-77
2022/01/16 00:48:05;;;;;;;6.00;1.23;;;;;;;-1.81;68.66;98218.78;4997573;28;20045;-78
2022/01/16 00:50:31;;;;;;;3.13;1.70;;;;;;;-1.76;68.79;98224.81;5013603;28;20038;-77
2022/01/16 00:52:57;;;;;;;2.40;1.20;;;;;;;-1.67;68.87;98242.78;5046642;28;20042;-78
2022/01/16 00:55:23;;;;;;;2.58;1.10;;;;;;;-1.66;68.85;98238.56;5046652;28;20488;-77
2022/01/16 00:57:48;;;;;;;2.75;1.15;;;;;;;-1.68;69.34;98258.03;5046204;28;20044;-77
2022/01/16 01:00:14;;;;;;;1.90;1.15;;;;;;;-1.65;69.28;98245.38;5013580;28;20064;-79
2022/01/16 01:02:40;;;;;;;2.53;1.20;;;;;;;-1.67;69.27;98237.72;5029927;28;20412;-78
2022/01/16 01:05:07;;;;;;;1.67;1.00;;;;;;;-1.68;69.41;98248.72;5030131;28;20056;-78
2022/01/16 01:07:33;;;;;;;2.22;1.27;;;;;;;-1.58;69.70;98255.72;5013657;28;20491;-77
2022/01/16 01:09:59;;;;;;;1.55;1.02;;;;;;;-1.65;69.28;98264.06;5013057;28;20038;-77
2022/01/16 01:12:33;;;;;;;2.92;1.15;;;;;;;-1.64;69.69;98264.91;5013927;28;20037;-78
2022/01/16 01:15:09;;;;;;;2.53;1.10;;;;;;;-1.64;69.76;98278.47;4996335;28;20042;-77
2022/01/16 01:17:43;;;;;;;2.80;1.15;;;;;;;-1.72;69.82;98271.50;5013613;28;20608;-78
2022/01/16 01:20:10;;;;;;;1.52;0.90;;;;;;;-1.72;69.87;98262.19;4997056;28;20038;-78
2022/01/16 01:22:36;;;;;;;1.45;0.93;;;;;;;-1.71;70.16;98280.84;4996247;28;20088;-78
2022/01/16 01:25:01;;;;;;;2.75;1.17;;;;;;;-1.79;70.45;98275.56;4996294;28;20038;-78
2022/01/16 01:27:31;;;;;;;1.85;1.02;;;;;;;-1.78;70.13;98281.53;5012552;28;20042;-78
2022/01/16 01:30:05;;;;;;;4.70;1.20;;;;;;;-1.91;70.78;98286.34;5012227;28;20038;-78
2022/01/16 01:32:32;;;;;;;2.90;1.02;;;;;;;-1.65;70.57;98291.13;5030076;28;20042;-77
2022/01/16 01:34:58;;;;;;;5.57;1.20;;;;;;;-1.72;70.46;98294.38;5012301;28;20037;-78
2022/01/16 01:37:23;;;;;;;1.90;1.13;;;;;;;-1.75;70.92;98300.25;5012428;28;20042;-76
2022/01/16 01:39:49;;;;;;;1.85;1.10;;;;;;;-1.75;71.06;98309.56;5012492;28;20044;-77
2022/01/16 01:42:16;;;;;;;4.90;1.10;;;;;;;-1.66;71.16;98305.53;5012056;28;20046;-77
2022/01/16 01:52:56;;;;;;;1.73;1.00;;;;;;;-1.72;72.54;98323.19;5011845;28;20065;-77
2022/01/16 01:55:21;;;;;;;1.65;0.98;;;;;;;-1.65;72.03;98337.78;5011692;28;20077;-77
2022/01/16 01:57:47;;;;;;;3.00;1.05;;;;;;;-1.78;72.31;98355.25;5012669;28;20036;-77
2022/01/16 02:00:17;;;;;;;2.72;1.73;;;;;;;-1.84;73.24;98363.56;4995476;28;20033;-76
2022/01/16 02:05:34;;;;;;;2.13;1.10;;;;;;;-1.85;73.38;98354.22;5011440;28;20122;-77
2022/01/16 02:08:00;;;;;;;2.60;0.98;;;;;;;-1.78;74.08;98352.72;5028410;28;20065;-77
2022/01/16 02:10:25;;;;;;;3.75;1.20;;;;;;;-1.81;73.87;98384.00;5012831;28;20053;-78
2022/01/16 02:12:58;;;;;;;2.00;1.30;;;;;;;-1.87;73.93;98409.28;5011908;28;20034;-77
2022/01/16 02:31:31;;;;;;;2.15;1.20;;;;;;;-1.79;75.34;98308.63;5011205;28;20489;-77
2022/01/16 02:36:50;;;;;;;2.38;1.08;;;;;;;-1.51;74.59;98329.56;5010960;28;20046;-77
2022/01/16 02:39:16;;;;;;;4.00;1.33;;;;;;;-1.42;74.58;98296.72;5012629;28;20089;-77
2022/01/16 02:41:43;;;;;;;;;;;;;;;-1.45;74.18;98311.94;5012188;28;20086;-78
2022/01/16 02:44:20;;;;;;;2.50;1.05;;;;;;;-1.44;74.51;98354.34;5012828;28;19917;-77
2022/01/16 02:46:46;;;;;;;1.88;1.10;;;;;;;-1.50;74.26;98351.66;4996905;28;20386;-77
2022/01/16 02:49:22;;;;;;;2.55;0.90;;;;;;;-1.67;75.50;98306.34;5011897;28;20061;-77
2022/01/16 02:51:48;;;;;;;2.35;1.20;;;;;;;-1.69;75.60;98325.81;4996323;28;20045;-78
2022/01/16 02:54:14;;;;;;;1.17;0.90;;;;;;;-1.64;76.36;98352.22;5011584;28;20042;-78
2022/01/16 02:56:40;;;;;;;1.38;0.90;;;;;;;-1.63;76.71;98348.84;4978873;28;20053;-78
2022/01/16 02:59:09;;;;;;;2.55;0.80;;;;;;;-1.50;75.95;98364.38;4994737;28;20091;-77
2022/01/16 03:01:35;;;;;;;2.97;1.08;;;;;;;-1.30;74.83;98371.63;4995283;28;20054;-78
2022/01/16 03:04:01;;;;;;;2.03;1.02;;;;;;;-1.41;74.82;98364.59;5011091;28;20100;-77
2022/01/16 03:06:27;;;;;;;1.40;0.90;;;;;;;-1.52;74.96;98358.38;5011587;28;20041;-78
2022/01/16 03:08:53;;;;;;;1.52;1.05;;;;;;;-1.72;75.91;98365.56;4995123;28;20428;-78
2022/01/16 03:11:34;;;;;;;2.83;1.30;;;;;;;-1.64;76.30;98371.69;4979326;28;20049;-78
2022/01/16 03:14:01;;;;;;;1.13;0.90;;;;;;;-1.48;76.06;98385.59;5012468;28;20552;-79
2022/01/16 03:16:27;;;;;;;2.30;1.08;;;;;;;-1.51;75.63;98404.22;5011228;28;20065;-78
2022/01/16 03:21:54;;;;;;;1.23;0.80;;;;;;;-1.50;76.52;98394.91;5014946;28;20447;-78
2022/01/16 03:24:21;;;;;;;3.10;1.13;;;;;;;-1.58;76.31;98392.16;4986540;28;20578;-78
2022/01/16 03:26:47;;;;;;;3.55;1.33;;;;;;;-1.69;76.65;98379.22;5014720;28;20037;-77
2022/01/16 03:29:13;;;;;;;2.67;1.10;;;;;;;-1.72;76.93;98389.31;5015016;28;20049;-77
2022/01/16 03:31:38;;;;;;;4.15;1.67;;;;;;;-1.62;77.09;98416.66;5014620;28;20046;-77
2022/01/16 03:34:04;;;;;;;1.83;1.00;;;;;;;-1.57;76.44;98430.34;5014615;28;20092;-78
2022/01/16 03:36:30;;;;;;;1.70;1.00;;;;;;;-1.50;75.68;98420.34;5014853;28;20049;-78
2022/01/16 03:38:55;;;;;;;1.75;1.02;;;;;;;-1.68;75.50;98429.22;5014628;28;20037;-76
2022/01/16 03:41:21;;;;;;;1.88;1.13;;;;;;;-1.74;76.18;98415.50;5015799;28;20121;-77
2022/01/16 03:43:47;;;;;;;2.03;1.05;;;;;;;-1.65;76.17;98419.16;5015455;28;20405;-76
2022/01/16 03:46:12;;;;;;;2.17;0.95;;;;;;;-1.44;75.98;98430.63;5015529;28;20041;-76
2022/01/16 03:48:38;;;;;;;5.85;3.50;;;;;;;-1.48;75.64;98426.31;5014125;28;20512;-76
2022/01/16 03:51:04;;;;;;;3.13;1.60;;;;;;;-1.57;75.35;98415.09;5015954;28;20042;-77
2022/01/16 03:53:30;;;;;;;4.75;1.60;;;;;;;-1.58;75.77;98428.63;5009771;28;20424;-77
2022/01/16 03:55:55;;;;;;;2.50;1.40;;;;;;;-1.63;75.96;98425.13;5030457;28;20397;-77
2022/01/16 03:58:21;;;;;;;1.50;1.15;;;;;;;-1.55;76.17;98443.97;5015070;28;20396;-77
2022/01/16 04:00:47;;;;;;;1.90;1.20;;;;;;;-1.50;75.85;98426.28;5014217;28;20087;-77
2022/01/16 04:03:12;;;;;;;1.80;1.10;;;;;;;-1.50;75.75;98428.81;5015086;28;20112;-79
2022/01/16 04:05:38;;;;;;;1.50;0.90;;;;;;;-1.53;75.32;98428.72;5014170;28;20084;-76
2022/01/16 04:08:04;;;;;;;4.25;1.30;;;;;;;-1.49;75.67;98424.59;5013938;28;20042;-78
2022/01/16 04:10:30;;;;;;;2.03;1.20;;;;;;;-1.56;74.81;98421.03;5014022;28;20512;-78
2022/01/16 04:12:56;;;;;;;2.33;1.17;;;;;;;-1.47;75.04;98436.50;5014048;28;20030;-77
2022/01/16 04:15:33;;;;;;;2.10;1.00;;;;;;;-1.26;74.80;98442.94;5013929;28;20049;-77
2022/01/16 04:18:00;;;;;;;1.48;1.02;;;;;;;-1.34;73.96;98440.19;5014262;28;20038;-76
2022/01/16 04:20:25;;;;;;;1.40;1.02;;;;;;;-1.45;73.30;98444.19;5013775;28;20038;-77
2022/01/16 04:22:51;;;;;;;2.38;1.20;;;;;;;-1.56;73.63;98451.53;4997568;28;20048;-77
2022/01/16 04:25:18;;;;;;;2.50;1.02;;;;;;;-1.72;74.08;98457.94;5013401;28;20038;-77
2022/01/16 04:27:44;;;;;;;1.55;1.10;;;;;;;-1.83;74.43;98461.91;5013913;28;20046;-77
2022/01/16 04:30:10;;;;;;;1.75;1.10;;;;;;;-1.63;75.12;98459.84;5012426;28;20517;-77
2022/01/16 04:32:36;;;;;;;1.67;0.95;;;;;;;-1.56;74.49;98449.88;5045711;28;20122;-77
2022/01/16 04:35:01;;;;;;;1.40;0.95;;;;;;;-1.43;74.22;98451.00;5014556;28;20481;-77
2022/01/16 04:37:27;;;;;;;1.17;0.95;;;;;;;-1.19;74.13;98452.41;5013881;28;20389;-77
2022/01/16 04:39:59;;;;;;;1.80;1.02;;;;;;;-1.36;73.63;98450.34;5014118;28;20042;-77
2022/01/16 04:45:20;;;;;;;2.35;0.90;;;;;;;-1.45;73.67;98445.03;4971214;28;20630;-77
2022/01/16 04:47:47;;;;;;;2.22;1.08;;;;;;;-1.50;74.06;98449.16;4996931;28;20042;-76
2022/01/16 04:50:13;;;;;;;2.45;1.42;;;;;;;-1.58;74.08;98454.06;4994077;28;20529;-76
2022/01/16 04:52:40;;;;;;;3.28;1.35;;;;;;;-1.77;75.14;98459.50;5026513;28;20169;-79
2022/01/16 04:55:07;;;;;;;2.50;1.10;;;;;;;-1.76;75.75;98473.94;5010184;28;20058;-77
2022/01/16 04:57:33;;;;;;;3.40;1.30;;;;;;;-1.68;75.73;98486.84;4994539;28;20092;-76
2022/01/16 04:59:58;;;;;;;1.83;1.23;;;;;;;-1.78;75.68;98475.59;5024154;28;20432;-77
2022/01/16 05:02:24;;;;;;;2.45;1.20;;;;;;;-1.61;75.64;98488.72;5028724;28;20517;-77
2022/01/16 05:04:50;;;;;;;3.15;1.77;;;;;;;-1.65;75.44;98485.25;5013806;28;20038;-77
2022/01/16 05:07:15;;;;;;;2.20;1.23;;;;;;;-1.74;75.87;98484.13;5013846;28;20061;-77
2022/01/16 05:09:41;;;;;;;1.80;1.10;;;;;;;-1.68;75.94;98492.78;5006042;28;20155;-77
2022/01/16 05:12:12;;;;;;;1.85;1.02;;;;;;;-1.66;76.30;98501.31;5027838;28;20045;-76
2022/01/16 05:17:22;;;;;;;1.48;0.93;;;;;;;-1.76;76.56;98518.84;4990391;28;20089;-77
2022/01/16 05:19:47;;;;;;;1.45;0.98;;;;;;;-1.74;76.73;98522.28;4993557;28;20386;-78
2022/01/16 05:22:13;;;;;;;2.40;1.13;;;;;;;-1.84;77.02;98521.16;5003394;28;20501;-77
2022/01/16 05:24:39;;;;;;;3.45;1.75;;;;;;;-1.91;77.75;98532.00;5046208;28;20030;-79
2022/01/16 05:27:06;;;;;;;3.00;1.45;;;;;;;-1.91;77.66;98527.78;5014274;28;20045;-79
2022/01/16 05:29:32;;;;;;;2.00;1.13;;;;;;;-1.94;77.64;98530.22;5032650;28;20037;-79
2022/01/16 05:31:58;;;;;;;4.57;2.25;;;;;;;-2.01;78.13;98533.44;5039418;28;20045;-78
2022/01/16 05:34:25;;;;;;;2.50;1.20;;;;;;;-2.08;78.68;98539.16;5045336;28;20072;-78
2022/01/16 05:36:52;;;;;;;2.97;1.50;;;;;;;-2.05;78.65;98545.19;5012707;28;20077;-78
2022/01/16 05:39:18;;;;;;;3.05;1.35;;;;;;;-2.08;79.03;98547.63;5012947;28;20481;-79
2022/01/16 05:41:44;;;;;;;1.60;1.20;;;;;;;-2.15;79.23;98543.22;4995578;28;20053;-79
2022/01/16 05:44:09;;;;;;;2.17;1.10;;;;;;;-2.15;79.27;98539.81;5003966;28;20040;-79
2022/01/16 05:46:35;;;;;;;2.20;1.10;;;;;;;-2.03;78.71;98554.53;4993884;28;20038;-81
2022/01/16 05:49:01;;;;;;;1.90;1.33;;;;;;;-1.93;78.40;98565.00;5009509;28;20180;-77
2022/01/16 05:51:26;;;;;;;2.00;1.10;;;;;;;-1.82;77.77;98565.31;5024462;28;20073;-77
2022/01/16 05:53:52;;;;;;;2.50;1.17;;;;;;;-1.97;77.14;98569.94;4991625;28;20058;-79
2022/01/16 05:56:18;;;;;;;;;;;;;;;-2.09;77.62;98573.88;4993355;28;20046;-78
2022/01/16 05:58:44;;;;;;;3.53;1.80;;;;;;;-2.26;78.39;98576.75;5003779;28;19936;-78
2022/01/16 06:01:10;;;;;;;3.10;1.75;;;;;;;-2.28;79.08;98571.63;5028209;28;20062;-79
2022/01/16 06:03:35;;;;;;;3.33;1.98;;;;;;;-2.37;79.48;98553.59;5044868;28;20034;-81
2022/01/16 06:06:01;;;;;;;2.22;1.50;;;;;;;-2.38;79.28;98555.28;4995323;28;20514;-82
2022/01/16 06:08:27;;;;;;;2.60;1.23;;;;;;;-2.38;79.26;98551.88;4979076;28;20040;-80
2022/01/16 06:10:52;;;;;;;2.42;1.70;;;;;;;-2.44;80.46;98577.91;5012931;28;20041;-79
2022/01/16 06:13:18;;;;;;;2.72;1.33;;;;;;;-2.34;80.51;98584.13;5012593;28;20045;-78
2022/01/16 06:15:46;;;;;;;2.53;1.63;;;;;;;-2.36;80.06;98585.78;5012666;28;20045;-78
2022/01/16 06:18:12;;;;;;;2.00;1.40;;;;;;;-2.41;80.47;98585.63;5013253;28;20038;-77
2022/01/16 06:20:38;;;;;;;;;;;;;;;-2.43;81.31;98594.91;5011550;28;20038;-79
2022/01/16 06:23:03;;;;;;;3.45;1.70;;;;;;;-2.43;81.22;98588.94;5012268;28;19913;-78
2022/01/16 06:25:29;;;;;;;2.40;1.48;;;;;;;-2.38;81.06;98582.34;5012169;28;20049;-78
2022/01/16 06:27:56;;;;;;;2.38;1.48;;;;;;;-2.36;81.08;98588.31;5012393;28;20038;-78
2022/01/16 06:30:22;;;;;;;2.55;1.70;;;;;;;-2.37;81.34;98584.06;5011530;28;20447;-78
2022/01/16 06:32:47;;;;;;;5.20;1.95;;;;;;;-2.28;81.17;98583.47;4995198;28;20121;-77
2022/01/16 06:35:16;;;;;;;3.63;2.00;;;;;;;-2.20;81.44;98582.88;5011365;28;20048;-79
2022/01/16 06:37:42;;;;;;;2.95;1.50;;;;;;;-2.20;80.67;98582.88;5011267;28;20136;-79
2022/01/16 06:40:09;;;;;;;3.58;2.00;;;;;;;-2.23;80.91;98582.78;4995599;28;20053;-79
2022/01/16 06:42:37;;;;;;;2.25;1.50;;;;;;;-2.13;81.09;98586.44;5012800;28;20088;-78
2022/01/16 06:45:04;;;;;;;1.85;1.17;;;;;;;-1.99;80.35;98589.38;5011427;28;20037;-77
2022/01/16 06:47:30;;;;;;;4.28;1.58;;;;;;;-2.02;80.36;98586.75;5010654;28;20057;-77
2022/01/16 06:49:55;;;;;;;3.00;1.90;;;;;;;-2.03;80.03;98596.06;4995072;28;20045;-79
2022/01/16 06:52:21;;;;;;;3.30;1.92;;;;;;;-1.99;79.83;98595.31;5012525;28;20041;-79
2022/01/16 06:54:47;;;;;;;2.78;1.70;;;;;;;-1.95;79.86;98612.38;5014976;28;20045;-78
2022/01/16 06:57:12;;;;;;;3.08;2.20;;;;;;;-1.86;79.89;98609.25;5016055;28;20037;-81
2022/01/16 06:59:38;;;;;;;2.42;1.38;;;;;;;-1.78;79.71;98612.00;4998391;28;20045;-79
2022/01/16 07:02:05;;;;;;;2.78;1.90;;;;;;;-1.86;78.92;98615.19;5016289;28;20058;-79
2022/01/16 07:04:31;;;;;;;5.72;2.47;;;;;;;-1.87;79.42;98616.00;5015334;28;20037;-79
2022/01/16 07:06:57;;;;;;;3.45;2.00;;;;;;;-1.84;79.00;98621.16;5016210;28;20044;-80
2022/01/16 07:09:23;;;;;;;2.50;1.60;;;;;;;-1.76;78.98;98623.94;5015210;28;20050;-78
2022/01/16 07:11:48;;;;;;;1.92;1.20;;;;;;;-1.76;78.55;98611.22;4982611;28;20474;-79
2022/01/16 07:14:15;;;;;;;1.92;1.30;;;;;;;-1.51;78.15;98622.03;5015653;28;20049;-81
2022/01/16 07:16:40;;;;;;;3.03;1.75;;;;;;;-1.59;76.73;98625.25;5014715;28;20041;-78
2022/01/16 07:19:06;;;;;;;3.55;1.10;;;;;;;-1.45;77.20;98635.81;5015792;28;20049;-80
2022/01/16 07:21:32;;;;;;;2.67;1.63;;;;;;;-1.41;76.96;98630.00;5014412;28;20074;-80
2022/01/16 07:23:57;;;;;;;3.47;1.60;;;;;;;-1.22;76.54;98630.47;5015709;28;20034;-79
2022/01/16 07:26:24;;;;;;;4.72;2.10;;;;;;;-1.19;76.16;98639.06;5015642;28;20041;-78
2022/01/16 07:28:51;;;;;;;3.92;2.00;;;;;;;-1.26;75.44;98639.69;4998628;28;20042;-80
2022/01/16 07:31:16;;;;;;;;;;;;;;;-1.38;75.94;98644.44;5015810;28;20033;-78
2022/01/16 07:33:42;;;;;;;8.10;3.13;;;;;;;-1.37;76.19;98636.88;5030934;28;19924;-79
2022/01/16 07:36:08;;;;;;;3.40;1.80;;;;;;;-1.45;76.54;98635.81;5015708;28;20041;-80
2022/01/16 07:38:33;;;;;;;3.97;1.60;;;;;;;-1.36;76.98;98650.47;5015248;28;20077;-79
2022/01/16 07:40:59;;;;;;;3.90;1.60;;;;;;;-1.25;76.98;98646.50;5015928;28;20085;-78
2022/01/16 07:43:25;;;;;;;2.25;1.48;;;;;;;-1.06;76.41;98643.59;5015103;28;20052;-78
2022/01/16 07:45:50;;;;;;;6.82;4.55;;;;;;;-1.18;75.64;98645.00;5015492;28;20052;-78
2022/01/16 07:48:16;;;;;;;6.72;3.60;;;;;;;-1.21;76.00;98653.41;5013757;28;20060;-78
2022/01/16 07:50:42;;;;;;;2.17;1.27;;;;;;;-1.10;76.28;98649.47;5014051;28;20046;-77
2022/01/16 07:53:08;;;;;;;3.17;1.33;;;;;;;-1.20;75.87;98659.34;5015383;28;20402;-78
2022/01/16 07:55:34;;;;;;;4.47;1.52;;;;;;;-1.14;76.32;98659.53;4981553;28;20041;-78
2022/01/16 07:58:00;;;;;;;4.18;1.80;;;;;;;-1.10;76.28;98662.19;4997044;28;20413;-78
2022/01/16 08:00:25;;;;;;;3.40;1.52;;;;;;;-1.05;76.01;98664.84;4997257;28;20053;-79
2022/01/16 08:02:51;;;;;;;2.63;1.15;;;;;;;-1.13;75.76;98663.78;4997312;28;20112;-78
2022/01/16 08:05:19;;;;;;;2.97;1.30;;;;;;;-1.00;75.99;98682.78;5013934;28;20124;-78
2022/01/16 08:07:45;;;;;;;2.33;1.23;;;;;;;-0.93;75.59;98671.94;5014887;28;20046;-79
2022/01/16 08:10:11;;;;;;;3.47;1.50;;;;;;;-0.80;76.54;98671.41;5014326;28;20041;-79
2022/01/16 08:12:37;;;;;;;3.28;1.33;;;;;;;-0.70;76.35;98687.78;5013810;28;20505;-80
2022/01/16 08:15:04;;;;;;;;;;;;;;;-0.64;75.94;98677.75;5014113;28;20394;-79
2022/01/16 08:17:30;;;;;;;3.60;1.27;;;;;;;-0.75;74.78;98674.94;5013489;28;20423;-80
2022/01/16 08:19:56;;;;;;;2.53;1.27;;;;;;;-0.81;74.86;98679.88;5013932;28;20038;-80
2022/01/16 08:22:21;;;;;;;2.30;1.20;;;;;;;-0.88;74.73;98673.75;5029730;28;20046;-81
2022/01/16 08:24:47;;;;;;;2.47;1.40;;;;;;;-0.89;74.88;98691.56;4996901;28;20076;-78
2022/01/16 08:27:15;;;;;;;2.20;1.13;;;;;;;-0.79;75.12;98685.88;5014623;28;20061;-80
2022/01/16 08:29:41;;;;;;;2.60;1.48;;;;;;;-0.74;74.66;98680.91;4997335;28;20064;-77
2022/01/16 08:32:08;;;;;;;2.88;1.52;;;;;;;-0.65;74.42;98676.88;5014750;28;20061;-79
2022/01/16 08:34:33;;;;;;;;;;;;;;;-0.68;73.73;98692.09;4997760;28;20041;-79
2022/01/16 08:36:59;;;;;;;5.38;2.00;;;;;;;-0.71;73.65;98674.19;5046304;28;19917;-78
2022/01/16 08:39:24;;;;;;;9.18;3.40;;;;;;;-0.58;73.74;98688.97;5013214;28;20425;-77
2022/01/16 08:41:52;;;;;;;8.02;2.88;;;;;;;-0.57;72.67;98683.03;4997416;28;20141;-79
2022/01/16 08:44:19;;;;;;;6.38;3.10;;;;;;;-0.56;71.75;98691.53;5029763;28;20125;-82
2022/01/16 08:46:45;;;;;;;4.25;2.17;;;;;;;-0.63;72.07;98694.78;5013280;28;20037;-79
2022/01/16 08:49:11;;;;;;;6.25;2.75;;;;;;;-0.63;71.77;98693.09;5029403;28;20033;-79
2022/01/16 08:51:36;;;;;;;4.20;1.88;;;;;;;-0.60;71.22;98685.50;5013234;28;20535;-78
2022/01/16 08:54:02;;;;;;;4.30;2.60;;;;;;;-0.42;70.18;98691.88;4996514;28;20119;-81
2022/01/16 08:56:28;;;;;;;4.20;2.25;;;;;;;-0.36;70.43;98694.56;4996758;28;20049;-77
2022/01/16 08:58:55;;;;;;;3.92;1.73;;;;;;;-0.32;70.10;98686.16;5045643;28;20064;-81
2022/01/16 09:01:21;;;;;;;4.15;1.92;;;;;;;-0.38;69.57;98686.03;5012863;28;20093;-78
2022/01/16 09:03:47;;;;;;;4.45;1.67;;;;;;;-0.18;70.46;98695.00;5013025;28;20077;-78
2022/01/16 09:06:13;;;;;;;3.60;1.40;;;;;;;-0.43;68.60;98683.38;5029577;28;20042;-78
2022/01/16 09:08:39;;;;;;;;;;;;;;;-0.37;68.37;98703.88;5012756;28;20120;-83
2022/01/16 09:11:05;;;;;;;5.13;2.20;;;;;;;-0.22;69.48;98677.91;5012455;28;20016;-80
2022/01/16 09:13:30;;;;;;;6.38;3.15;;;;;;;-0.22;68.21;98690.66;5012989;28;20144;-78
2022/01/16 09:15:57;;;;;;;4.22;1.98;;;;;;;-0.22;68.12;98702.53;5012227;28;20044;-79
2022/01/16 09:18:22;;;;;;;3.55;1.40;;;;;;;-0.10;69.02;98688.38;4996312;28;20041;-79
2022/01/16 09:20:48;;;;;;;1.95;1.15;;;;;;;0.03;68.37;98688.66;4996422;28;20439;-82
2022/01/16 09:23:14;;;;;;;4.07;1.80;;;;;;;0.01;67.40;98701.38;5012061;28;20515;-78
2022/01/16 09:25:40;;;;;;;3.60;2.08;;;;;;;-0.09;67.19;98695.22;5012491;28;20129;-77
2022/01/16 09:28:06;;;;;;;2.88;1.23;;;;;;;-0.30;67.19;98689.63;5012794;28;20037;-77
2022/01/16 09:30:31;;;;;;;4.30;1.35;;;;;;;-0.16;67.89;98684.84;5012443;28;20041;-77
2022/01/16 09:32:57;;;;;;;3.47;1.52;;;;;;;-0.12;67.84;98684.94;5012000;28;20052;-79
2022/01/16 09:35:23;;;;;;;4.38;1.85;;;;;;;-0.08;65.93;98675.69;4995877;28;20041;-79
2022/01/16 09:37:50;;;;;;;5.25;2.10;;;;;;;-0.55;65.99;98665.22;4996163;28;20493;-81
2022/01/16 09:40:17;;;;;;;10.45;3.25;;;;;;;-0.44;66.65;98666.34;4995808;28;20409;-78
2022/01/16 09:42:43;;;;;;;8.15;3.40;;;;;;;-0.54;66.41;98665.28;5012061;28;20497;-79
2022/01/16 09:45:10;;;;;;;12.70;4.55;;;;;;;-0.38;65.92;98665.63;5012196;28;20155;-81
2022/01/16 09:47:36;;;;;;;8.13;2.55;;;;;;;-0.27;65.35;98659.97;5011551;28;20050;-81
2022/01/16 09:50:05;;;;;;;2.28;1.08;;;;;;;-0.48;65.13;98673.91;5013082;28;20044;-77
2022/01/16 09:52:36;;;;;;;3.15;1.40;;;;;;;-0.19;65.99;98675.41;5011720;28;20064;-78
2022/01/16 09:55:01;;;;;;;2.40;1.40;;;;;;;-0.16;64.97;98672.94;4979734;28;20416;-78
2022/01/16 09:57:28;;;;;;;5.63;1.70;;;;;;;0.05;65.11;98676.81;5011893;28;20045;-78
2022/01/16 09:59:53;;;;;;;;;;;;;;;0.02;62.93;98685.25;5012024;28;20425;-79
2022/01/16 10:02:19;;;;;;;2.30;0.90;;;;;;;0.12;64.93;98665.91;5011796;28;19925;-79
2022/01/16 10:04:45;;;;;;;1.60;1.08;;;;;;;0.28;64.93;98673.06;5011765;28;20036;-82
2022/01/16 10:07:15;;;;;;;3.30;1.45;;;;;;;0.19;62.47;98671.19;5011890;28;20473;-78
2022/01/16 10:10:03;;;;;;;3.53;1.50;;;;;;;0.21;64.00;98676.31;5012184;28;20046;-78
2022/01/16 10:12:29;;;;;;;4.45;1.85;;;;;;;0.11;63.09;98680.34;5004974;28;20046;-79
2022/01/16 10:14:56;;;;;;;3.50;1.35;;;;;;;0.26;63.29;98687.47;4995208;28;20049;-83
2022/01/16 10:17:25;;;;;;;3.47;1.30;;;;;;;0.02;62.46;98685.25;4995811;28;20046;-83
2022/01/16 10:19:58;;;;;;;2.35;1.08;;;;;;;0.01;62.98;98680.97;5012307;28;20543;-78
2022/01/16 10:22:23;;;;;;;2.67;1.10;;;;;;;0.22;62.34;98678.88;5044289;28;20485;-77
2022/01/16 10:24:50;;;;;;;2.45;0.93;;;;;;;0.48;63.02;98689.63;5011373;28;20065;-78
2022/01/16 10:27:18;;;;;;;1.85;1.05;;;;;;;0.57;61.90;98693.19;5012302;28;20038;-78
2022/01/16 10:29:51;;;;;;;2.40;1.00;;;;;;;0.60;62.30;98685.63;4995216;28;20064;-79
2022/01/16 10:32:25;;;;;;;2.55;0.80;;;;;;;0.65;61.90;98676.34;5013182;28;20394;-80
2022/01/16 10:35:12;;;;;;;1.52;0.80;;;;;;;0.52;62.59;98685.44;5012347;28;20046;-78
2022/01/16 10:37:39;;;;;;;2.58;0.90;;;;;;;0.72;62.58;98683.28;5037168;28;20499;-78
2022/01/16 10:40:10;;;;;;;1.38;0.80;;;;;;;0.59;61.35;98677.06;5010813;28;20046;-81
2022/01/16 10:42:36;;;;;;;3.13;1.52;;;;;;;0.39;59.48;98684.34;4995348;28;20041;-78
2022/01/16 10:45:05;;;;;;;;;;;;;;;0.25;59.37;98695.94;5011539;28;20038;-78
2022/01/16 10:47:32;;;;;;;5.20;1.05;;;;;;;-0.09;60.04;98684.13;5012238;28;19972;-78
2022/01/16 10:50:05;;;;;;;2.08;1.02;;;;;;;-0.03;61.72;98680.03;4978683;28;20045;-79
2022/01/16 10:52:31;;;;;;;1.80;0.98;;;;;;;0.19;61.28;98688.16;5027798;28;20037;-81
2022/01/16 10:55:04;;;;;;;2.67;1.08;;;;;;;0.02;60.12;98692.03;5012220;28;20132;-80
2022/01/16 10:57:30;;;;;;;5.18;1.90;;;;;;;-0.60;59.65;98690.59;5010461;28;20049;-78
2022/01/16 11:00:06;;;;;;;3.35;1.20;;;;;;;-0.56;61.68;98691.53;5012669;28;20034;-78
2022/01/16 11:02:31;;;;;;;4.03;1.83;;;;;;;-0.42;61.33;98694.41;5012270;28;20116;-78
2022/01/16 11:05:09;;;;;;;3.35;1.60;;;;;;;-0.19;61.25;98692.41;5044453;28;20041;-80
2022/01/16 11:07:34;;;;;;;3.78;1.50;;;;;;;-0.27;60.12;98692.25;5010842;28;20051;-79
2022/01/16 11:10:01;;;;;;;4.00;1.33;;;;;;;-0.94;59.66;98699.06;4995169;28;20034;-79
2022/01/16 11:12:36;;;;;;;3.20;1.30;;;;;;;-0.69;60.23;98705.66;5011255;28;20138;-79
2022/01/16 11:15:03;;;;;;;3.28;1.30;;;;;;;-0.58;59.93;98699.16;4994792;28;20046;-78
2022/01/16 11:17:29;;;;;;;3.95;2.45;;;;;;;-0.41;60.43;98693.56;5011036;28;20069;-79
2022/01/16 11:19:54;;;;;;;1.40;1.00;;;;;;;-0.40;59.48;98703.81;4995035;28;20454;-79
2022/01/16 11:22:24;;;;;;;5.00;1.50;;;;;;;-0.33;59.36;98704.81;5011309;28;20088;-80
2022/01/16 11:25:11;;;;;;;2.88;1.40;;;;;;;-0.47;58.99;98701.09;5013231;28;20050;-84
2022/01/16 11:27:37;;;;;;;1.60;1.07;;;;;;;-0.51;57.99;98706.09;4998683;28;20046;-78
2022/01/16 11:30:03;;;;;;;1.63;1.00;;;;;;;-0.28;59.64;98708.34;5011279;28;20038;-79
2022/01/16 11:32:28;;;;;;;1.95;1.00;;;;;;;-0.11;58.81;98716.38;5010129;28;20081;-77
2022/01/16 11:34:56;;;;;;;2.45;1.25;;;;;;;0.04;58.88;98720.97;5010363;28;20065;-77
2022/01/16 11:37:22;;;;;;;1.20;0.80;;;;;;;0.56;58.32;98724.66;5010196;28;20038;-77
2022/01/16 11:39:48;;;;;;;2.05;0.95;;;;;;;1.11;56.31;98715.53;4995852;28;20046;-79
2022/01/16 11:42:21;;;;;;;2.17;1.00;;;;;;;1.71;54.93;98722.50;5013565;28;20045;-78
2022/01/16 11:44:51;;;;;;;1.85;1.00;;;;;;;2.22;54.52;98719.00;5015489;28;20041;-81
2022/01/16 11:47:17;;;;;;;2.45;1.00;;;;;;;2.34;51.36;98719.19;5030144;28;20046;-79
2022/01/16 11:49:43;;;;;;;3.40;0.90;;;;;;;2.43;52.69;98737.22;4997265;28;20038;-77
2022/01/16 11:52:12;;;;;;;3.30;1.42;;;;;;;2.38;50.74;98727.75;5013554;28;20049;-78
2022/01/16 11:54:38;;;;;;;1.88;0.80;;;;;;;2.44;51.42;98726.16;5014791;28;20038;-78
2022/01/16 11:57:28;;;;;;;2.20;1.10;;;;;;;2.26;52.23;98731.00;5014481;28;20088;-78
2022/01/16 12:00:14;;;;;;;1.98;1.00;;;;;;;2.04;52.51;98740.06;5013616;28;20073;-79
2022/01/16 12:02:49;;;;;;;3.45;1.20;;;;;;;1.95;51.79;98733.13;5014556;28;20152;-78
2022/01/16 12:05:21;;;;;;;5.10;1.90;;;;;;;1.66;52.31;98745.44;5013862;28;20030;-78
2022/01/16 12:07:48;;;;;;;2.55;1.17;;;;;;;1.61;53.71;98730.88;5013383;28;20052;-79
2022/01/16 12:10:34;;;;;;;2.10;1.17;;;;;;;1.09;50.48;98750.38;5013276;28;20116;-78
2022/01/16 12:13:00;;;;;;;1.95;1.13;;;;;;;0.89;53.21;98742.34;5029811;28;20648;-78
2022/01/16 12:15:27;;;;;;;1.50;0.90;;;;;;;0.73;54.49;98729.28;5014311;28;20125;-80